createdAt,value
2023-02-12T00:01:13.734Z,45.20
2023-02-12T00:04:17.208Z,46.00
2023-02-12T00:07:22.391Z,40.75
2023-02-12T00:10:26.152Z,45.00
2023-02-12T00:13:32.049Z,44.60
2023-02-12T00:16:35.266Z,43.00
2023-02-12T00:19:38.517Z,45.40
2023-02-12T00:22:43.197Z,47.20
2023-02-12T00:25:46.469Z,41.80
2023-02-12T00:28:50.459Z,44.00
2023-02-12T00:31:54.002Z,43.00
2023-02-12T00:34:57.319Z,45.00
2023-02-12T00:38:02.308Z,47.40
2023-02-12T00:41:05.883Z,43.80
2023-02-12T00:44:09.212Z,45.00
2023-02-12T00:47:12.556Z,45.00
2023-02-12T00:50:15.853Z,46.75
2023-02-12T00:53:20.781Z,48.50
2023-02-12T00:56:24.120Z,38.60
2023-02-12T00:59:28.895Z,45.00
2023-02-12T01:02:33.238Z,43.60
2023-02-12T01:05:37.019Z,43.00
2023-02-12T01:08:41.832Z,45.00
2023-02-12T01:11:45.031Z,44.00
2023-02-12T01:14:48.351Z,41.60
2023-02-12T01:17:53.704Z,44.75
2023-02-12T01:20:59.045Z,43.60
2023-02-12T01:24:04.464Z,42.50
2023-02-12T01:27:07.824Z,42.60
2023-02-12T01:30:14.336Z,42.40
2023-02-12T01:33:17.736Z,42.00
2023-02-12T01:36:22.834Z,42.50
2023-02-12T01:39:27.579Z,44.40
2023-02-12T01:42:31.840Z,40.20
2023-02-12T01:45:50.493Z,41.00
2023-02-12T01:48:54.094Z,43.50
2023-02-12T01:52:02.463Z,43.60
2023-02-12T01:55:11.295Z,43.80
2023-02-12T01:58:15.969Z,42.75
2023-02-12T02:01:24.247Z,44.50
2023-02-12T02:04:34.358Z,37.80
2023-02-12T02:07:37.776Z,47.00
2023-02-12T02:10:42.390Z,42.33
2023-02-12T02:14:02.892Z,45.00
2023-02-12T02:17:32.052Z,43.00
2023-02-12T02:20:55.916Z,42.50
2023-02-12T02:24:35.450Z,43.60
2023-02-12T02:27:50.328Z,45.40
2023-02-12T02:30:59.455Z,44.40
2023-02-12T02:34:09.949Z,40.60
2023-02-12T02:37:19.679Z,41.00
2023-02-12T02:40:28.498Z,41.50
2023-02-12T02:43:37.937Z,39.00
2023-02-12T02:46:47.945Z,38.80
2023-02-12T02:49:56.010Z,37.00
2023-02-12T02:53:05.891Z,37.20
2023-02-12T02:56:16.174Z,36.60
2023-02-12T02:59:25.228Z,42.00
2023-02-12T03:02:34.118Z,38.60
2023-02-12T03:05:43.540Z,43.20
2023-02-12T03:08:52.736Z,39.00
2023-02-12T03:12:00.377Z,36.40
2023-02-12T03:15:10.167Z,40.20
2023-02-12T03:18:20.513Z,35.00
2023-02-12T03:21:30.115Z,35.60
2023-02-12T03:24:37.880Z,35.00
2023-02-12T03:27:45.414Z,32.50
2023-02-12T03:30:55.208Z,30.25
2023-02-12T03:34:09.299Z,28.75
2023-02-12T03:37:20.613Z,28.50
2023-02-12T03:40:32.484Z,28.80
2023-02-12T03:43:45.337Z,33.00
2023-02-12T03:46:57.967Z,36.20
2023-02-12T03:50:11.426Z,35.60
2023-02-12T03:53:14.772Z,35.00
2023-02-12T03:56:23.677Z,34.00
2023-02-12T03:59:27.664Z,33.00
2023-02-12T04:02:31.311Z,35.00
2023-02-12T04:05:36.068Z,36.50
2023-02-12T04:08:39.568Z,38.00
2023-02-12T04:11:55.658Z,33.67
2023-02-12T04:15:13.775Z,33.60
2023-02-12T04:18:22.660Z,33.00
2023-02-12T04:21:44.906Z,31.50
2023-02-12T04:25:00.485Z,30.75
2023-02-12T04:28:14.819Z,35.80
2023-02-12T04:31:25.539Z,29.00
2023-02-12T04:34:36.700Z,29.20
2023-02-12T04:37:45.479Z,22.75
2023-02-12T04:40:50.420Z,25.60
2023-02-12T04:43:53.866Z,25.25
2023-02-12T04:46:57.249Z,21.60
2023-02-12T04:50:00.632Z,23.00
2023-02-12T04:53:05.329Z,18.00
2023-02-12T04:56:12.322Z,19.75
2023-02-12T04:59:16.355Z,17.20
2023-02-12T05:02:19.620Z,17.60
2023-02-12T05:05:23.427Z,15.80
2023-02-12T05:08:28.228Z,14.00
2023-02-12T05:11:31.577Z,15.40
2023-02-12T05:14:34.867Z,17.75
2023-02-12T05:17:38.278Z,17.40
2023-02-12T05:20:41.568Z,13.80
2023-02-12T05:23:46.833Z,17.50
2023-02-12T05:26:50.734Z,13.00
2023-02-12T05:29:54.098Z,16.00
2023-02-12T05:32:57.312Z,15.20
2023-02-12T05:36:05.349Z,15.80
2023-02-12T05:39:09.961Z,18.50
2023-02-12T05:42:13.470Z,17.20
2023-02-12T05:45:16.798Z,14.40
2023-02-12T05:48:20.140Z,17.00
2023-02-12T05:51:25.646Z,13.00
2023-02-12T05:54:30.349Z,14.00
2023-02-12T05:57:33.573Z,15.75
2023-02-12T06:00:37.051Z,15.00
2023-02-12T06:03:40.494Z,14.00
2023-02-12T06:06:44.657Z,13.40
2023-02-12T06:09:49.484Z,13.00
2023-02-12T06:12:55.656Z,13.50
2023-02-12T06:15:59.800Z,14.00
2023-02-12T06:19:06.466Z,13.00
2023-02-12T06:22:09.749Z,15.75
2023-02-12T06:25:14.404Z,11.00
2023-02-12T06:28:18.018Z,10.40
2023-02-12T06:31:23.931Z,10.60
2023-02-12T06:34:27.294Z,12.00
2023-02-12T06:37:31.128Z,11.25
2023-02-12T06:40:35.757Z,9.80
2023-02-12T06:43:39.492Z,12.00
2023-02-12T06:46:42.838Z,13.00
2023-02-12T06:49:46.267Z,12.00
2023-02-12T06:52:49.639Z,11.60
2023-02-12T06:55:54.520Z,13.00
2023-02-12T06:59:01.304Z,11.00
2023-02-12T07:02:04.721Z,12.00
2023-02-12T07:05:08.255Z,12.00
2023-02-12T07:08:11.744Z,13.00
2023-02-12T07:11:17.082Z,15.60
2023-02-12T07:14:20.634Z,11.00
2023-02-12T07:17:24.046Z,13.00
2023-02-12T07:20:27.234Z,12.20
2023-02-12T07:23:30.573Z,10.25
2023-02-12T07:26:35.436Z,11.00
2023-02-12T07:29:38.715Z,13.25
2023-02-12T07:32:41.962Z,11.00
2023-02-12T07:35:45.408Z,9.50
2023-02-12T07:38:48.998Z,10.25
2023-02-12T07:41:53.756Z,10.80
2023-02-12T07:44:57.464Z,11.80
2023-02-12T07:48:00.755Z,12.25
2023-02-12T07:51:08.593Z,8.00
2023-02-12T07:54:12.841Z,13.50
2023-02-12T07:57:17.572Z,10.20
2023-02-12T08:00:21.759Z,8.00
2023-02-12T08:03:25.077Z,8.00
2023-02-12T08:06:31.449Z,11.00
2023-02-12T08:09:34.616Z,9.00
2023-02-12T08:12:39.326Z,9.00
2023-02-12T08:15:42.798Z,6.00
2023-02-12T08:18:46.358Z,9.75
2023-02-12T08:21:51.798Z,7.75
2023-02-12T08:24:55.232Z,9.00
2023-02-12T08:27:59.842Z,8.40
2023-02-12T08:31:03.535Z,6.00
2023-02-12T08:34:07.295Z,8.00
2023-02-12T08:37:11.152Z,8.40
2023-02-12T08:40:15.062Z,8.00
2023-02-12T08:43:19.696Z,8.00
2023-02-12T08:46:25.544Z,7.50
2023-02-12T08:49:31.454Z,6.33
2023-02-12T08:52:36.035Z,8.00
2023-02-12T08:55:39.431Z,8.00
2023-02-12T08:58:44.720Z,8.00
2023-02-12T09:01:51.930Z,6.50
2023-02-12T09:04:55.346Z,5.60
2023-02-12T09:07:58.589Z,7.00
2023-02-12T09:11:05.967Z,7.60
2023-02-12T09:14:13.662Z,7.60
2023-02-12T09:17:17.231Z,10.00
2023-02-12T09:20:20.750Z,8.75
2023-02-12T09:23:24.064Z,9.20
2023-02-12T09:26:27.524Z,7.75
2023-02-12T09:29:32.144Z,9.00
2023-02-12T09:32:35.428Z,9.00
2023-02-12T09:35:39.238Z,7.50
2023-02-12T09:38:43.313Z,8.00
2023-02-12T09:42:17.885Z,7.00
2023-02-12T09:45:25.884Z,8.00
2023-02-12T09:48:44.133Z,9.00
2023-02-12T09:51:54.040Z,9.00
2023-02-12T09:54:58.251Z,8.60
2023-02-12T09:58:05.250Z,9.60
2023-02-12T10:01:15.060Z,7.00
2023-02-12T10:04:19.236Z,8.00
2023-02-12T10:07:34.190Z,8.80
2023-02-12T10:10:51.110Z,9.00
2023-02-12T10:14:06.728Z,11.00
2023-02-12T10:17:20.842Z,8.60
2023-02-12T10:20:41.788Z,9.00
2023-02-12T10:24:03.211Z,8.75
2023-02-12T10:27:14.217Z,8.00
2023-02-12T10:30:22.649Z,10.60
2023-02-12T10:33:33.607Z,7.80
2023-02-12T10:36:43.803Z,9.00
2023-02-12T10:39:52.066Z,9.00
2023-02-12T10:42:57.495Z,9.00
2023-02-12T10:46:00.865Z,9.40
2023-02-12T10:49:07.795Z,8.00
2023-02-12T10:52:18.094Z,10.00
2023-02-12T10:55:27.043Z,8.00
2023-02-12T10:58:30.630Z,7.00
2023-02-12T11:01:36.275Z,7.60
2023-02-12T11:04:40.952Z,8.40
2023-02-12T11:07:50.550Z,13.00
2023-02-12T11:10:54.534Z,8.00
2023-02-12T11:14:01.245Z,9.00
2023-02-12T11:17:04.609Z,8.20
2023-02-12T11:20:28.265Z,8.00
2023-02-12T11:23:33.692Z,10.00
2023-02-12T11:26:37.227Z,11.40
2023-02-12T11:29:41.069Z,10.00
2023-02-12T11:32:44.505Z,9.40
2023-02-12T11:35:54.339Z,11.00
2023-02-12T11:38:59.648Z,9.00
2023-02-12T11:42:07.238Z,7.00
2023-02-12T11:45:18.981Z,8.00
2023-02-12T11:48:26.119Z,9.00
2023-02-12T11:51:33.659Z,10.40
2023-02-12T11:54:42.963Z,8.00
2023-02-12T11:57:48.565Z,8.00
2023-02-12T12:00:58.263Z,10.00
2023-02-12T12:04:06.413Z,10.40
2023-02-12T12:07:19.195Z,9.00
2023-02-12T12:10:37.853Z,11.75
2023-02-12T12:13:48.965Z,9.20
2023-02-12T12:17:16.974Z,8.67
2023-02-12T12:20:25.220Z,9.60
2023-02-12T12:23:37.154Z,7.00
2023-02-12T12:26:46.023Z,8.50
2023-02-12T12:29:56.371Z,9.60
2023-02-12T12:33:04.005Z,10.00
2023-02-12T12:37:00.117Z,9.40
2023-02-12T12:40:24.928Z,11.00
2023-02-12T12:43:44.910Z,10.60
2023-02-12T12:47:01.686Z,10.00
2023-02-12T12:50:25.290Z,11.00
2023-02-12T12:53:39.997Z,14.00
2023-02-12T12:56:56.332Z,10.00
2023-02-12T13:00:09.465Z,14.40
2023-02-12T13:03:53.974Z,11.60
2023-02-12T13:07:14.429Z,10.75
2023-02-12T13:10:28.799Z,10.00
2023-02-12T13:13:37.417Z,12.40
2023-02-12T13:16:47.438Z,11.00
2023-02-12T13:20:02.225Z,12.20
2023-02-12T13:23:12.438Z,14.00
2023-02-12T13:26:21.962Z,11.00
2023-02-12T13:29:30.918Z,10.00
2023-02-12T13:32:40.738Z,13.40
2023-02-12T13:35:49.021Z,12.00
2023-02-12T13:38:57.786Z,12.33
2023-02-12T13:42:14.800Z,13.00
2023-02-12T13:45:31.516Z,16.00
2023-02-12T13:48:48.456Z,14.60
2023-02-12T13:51:57.313Z,15.00
2023-02-12T13:55:21.048Z,14.00
2023-02-12T13:58:40.971Z,14.40
2023-02-12T14:01:49.650Z,15.00
2023-02-12T14:04:59.873Z,20.00
2023-02-12T14:08:06.126Z,16.60
2023-02-12T14:11:13.628Z,17.60
2023-02-12T14:14:27.517Z,18.00
2023-02-12T14:18:05.965Z,13.60
2023-02-12T14:21:42.856Z,16.20
2023-02-12T14:24:55.900Z,18.00
2023-02-12T14:28:06.956Z,15.00
2023-02-12T14:31:38.214Z,16.25
2023-02-12T14:34:43.230Z,19.00
2023-02-12T14:37:46.513Z,15.25
2023-02-12T14:40:50.372Z,16.00
2023-02-12T14:44:02.491Z,17.40
2023-02-12T14:47:14.431Z,16.80
2023-02-12T14:50:24.216Z,16.25
2023-02-12T14:53:32.610Z,19.00
2023-02-12T14:56:46.836Z,18.60
2023-02-12T14:59:52.019Z,15.80
2023-02-12T15:02:59.662Z,16.00
2023-02-12T15:06:11.508Z,18.00
2023-02-12T15:09:22.182Z,16.50
2023-02-12T15:12:33.860Z,16.60
2023-02-12T15:15:44.137Z,17.25
2023-02-12T15:18:54.908Z,17.80
2023-02-12T15:22:00.601Z,18.00
2023-02-12T15:25:17.515Z,17.00
2023-02-12T15:28:25.429Z,16.00
2023-02-12T15:31:30.939Z,19.60
2023-02-12T15:34:39.004Z,19.00
2023-02-12T15:37:44.468Z,20.00
2023-02-12T15:40:56.289Z,19.00
2023-02-12T15:43:59.981Z,20.00
2023-02-12T15:47:11.987Z,22.40
2023-02-12T15:50:16.718Z,19.00
2023-02-12T15:53:22.963Z,19.33
2023-02-12T15:56:27.671Z,22.00
2023-02-12T15:59:31.021Z,19.67
2023-02-12T16:02:34.478Z,18.80
2023-02-12T16:05:38.640Z,20.40
2023-02-12T16:08:45.416Z,21.40
2023-02-12T16:11:49.978Z,20.00
2023-02-12T16:14:55.695Z,20.80
2023-02-12T16:17:59.997Z,19.25
2023-02-12T16:21:05.996Z,21.00
2023-02-12T16:24:23.879Z,18.40
2023-02-12T16:27:30.365Z,21.00
2023-02-12T16:30:38.873Z,21.00
2023-02-12T16:33:49.721Z,23.80
2023-02-12T16:36:53.634Z,20.00
2023-02-12T16:40:21.483Z,17.25
2023-02-12T16:43:27.845Z,22.75
2023-02-12T16:46:33.927Z,17.00
2023-02-12T16:49:37.359Z,20.00
2023-02-12T16:52:42.155Z,22.40
2023-02-12T16:55:46.919Z,20.00
2023-02-12T16:58:51.930Z,18.60
2023-02-12T17:02:00.442Z,20.25
2023-02-12T17:05:05.765Z,24.20
2023-02-12T17:08:13.604Z,23.00
2023-02-12T17:11:19.486Z,24.00
2023-02-12T17:14:22.803Z,25.00
2023-02-12T17:17:26.169Z,25.00
2023-02-12T17:20:29.490Z,21.60
2023-02-12T17:23:33.402Z,22.25
2023-02-12T17:26:38.136Z,22.00
2023-02-12T17:29:41.459Z,19.80
2023-02-12T17:32:44.857Z,23.00
2023-02-12T17:35:48.200Z,24.40
2023-02-12T17:38:52.212Z,20.60
2023-02-12T17:41:58.629Z,21.00
2023-02-12T17:45:01.887Z,26.00
2023-02-12T17:48:06.258Z,27.00
2023-02-12T17:51:11.564Z,27.00
2023-02-12T17:54:17.709Z,29.00
2023-02-12T17:57:22.309Z,31.00
2023-02-12T18:00:26.326Z,28.00
2023-02-12T18:03:29.615Z,30.50
2023-02-12T18:06:33.458Z,31.40
2023-02-12T18:09:38.799Z,30.00
2023-02-12T18:12:43.957Z,27.00
2023-02-12T18:15:47.701Z,28.50
2023-02-12T18:18:51.087Z,30.20
2023-02-12T18:21:54.356Z,27.00
2023-02-12T18:24:57.751Z,28.75
2023-02-12T18:28:02.727Z,29.33
2023-02-12T18:31:07.469Z,29.50
2023-02-12T18:34:10.835Z,34.80
2023-02-12T18:37:15.043Z,33.80
2023-02-12T18:40:21.881Z,37.40
2023-02-12T18:43:26.676Z,35.00
2023-02-12T18:46:32.510Z,38.00
2023-02-12T18:49:35.973Z,36.80
2023-02-12T18:52:39.266Z,32.75
2023-02-12T18:55:42.584Z,35.60
2023-02-12T18:58:47.354Z,38.80
2023-02-12T19:01:51.888Z,35.00
2023-02-12T19:04:55.405Z,33.80
2023-02-12T19:07:58.732Z,35.80
2023-02-12T19:11:02.266Z,32.40
2023-02-12T19:14:07.142Z,32.00
2023-02-12T19:17:10.692Z,32.50
2023-02-12T19:20:15.513Z,35.00
2023-02-12T19:23:18.828Z,34.80
2023-02-12T19:26:25.983Z,32.75
2023-02-12T19:29:30.661Z,36.25
2023-02-12T19:32:34.402Z,38.00
2023-02-12T19:35:37.801Z,37.50
2023-02-12T19:38:41.311Z,36.40
2023-02-12T19:41:46.951Z,41.00
2023-02-12T19:44:51.533Z,32.25
2023-02-12T19:47:54.879Z,33.75
2023-02-12T19:50:58.864Z,33.25
2023-02-12T19:54:04.264Z,33.40
2023-02-12T19:57:09.366Z,31.20
2023-02-12T20:00:15.775Z,31.00
2023-02-12T20:03:20.072Z,31.00
2023-02-12T20:06:26.989Z,38.20
2023-02-12T20:09:30.441Z,28.80
2023-02-12T20:12:33.772Z,29.00
2023-02-12T20:15:39.258Z,28.80
2023-02-12T20:18:43.073Z,30.25
2023-02-12T20:21:48.909Z,33.00
2023-02-12T20:24:52.214Z,32.60
2023-02-12T20:27:55.477Z,35.00
2023-02-12T20:31:00.481Z,31.60
2023-02-12T20:34:06.423Z,33.00
2023-02-12T20:37:09.614Z,35.00
2023-02-12T20:40:13.396Z,39.60
2023-02-12T20:43:16.976Z,33.00
2023-02-12T20:46:23.993Z,34.00
2023-02-12T20:49:27.641Z,34.50
2023-02-12T20:52:31.803Z,33.40
2023-02-12T20:55:35.058Z,37.00
2023-02-12T20:58:38.943Z,32.80
2023-02-12T21:01:44.486Z,32.60
2023-02-12T21:04:47.841Z,35.00
2023-02-12T21:07:51.599Z,32.00
2023-02-12T21:11:00.146Z,31.80
2023-02-12T21:14:21.327Z,36.00
2023-02-12T21:17:27.562Z,34.80
2023-02-12T21:20:30.845Z,36.40
2023-02-12T21:23:34.720Z,38.00
2023-02-12T21:26:38.114Z,41.20
2023-02-12T21:29:41.381Z,40.60
2023-02-12T21:32:47.506Z,44.50
2023-02-12T21:35:50.922Z,45.00
2023-02-12T21:38:54.615Z,48.20
2023-02-12T21:42:00.276Z,48.20
2023-02-12T21:45:03.730Z,50.00
2023-02-12T21:48:09.197Z,44.00
2023-02-12T21:51:22.337Z,47.00
2023-02-12T21:54:26.105Z,47.00
2023-02-12T21:57:29.342Z,46.00
2023-02-12T22:00:32.565Z,45.40
2023-02-12T22:03:37.708Z,50.00
2023-02-12T22:06:42.770Z,49.00
2023-02-12T22:09:46.209Z,50.50
2023-02-12T22:12:49.523Z,48.20
2023-02-12T22:15:53.047Z,47.00
2023-02-12T22:19:01.873Z,43.20
2023-02-12T22:22:05.221Z,51.40
2023-02-12T22:25:08.697Z,45.00
2023-02-12T22:28:13.080Z,48.60
2023-02-12T22:31:19.569Z,53.40
2023-02-12T22:34:24.333Z,53.00
2023-02-12T22:37:28.058Z,50.00
2023-02-12T22:40:31.380Z,53.00
2023-02-12T22:43:37.324Z,50.00
2023-02-12T22:46:40.978Z,52.00
2023-02-12T22:49:45.667Z,50.60
2023-02-12T22:52:49.070Z,53.00
2023-02-12T22:55:52.923Z,49.00
2023-02-12T22:58:57.377Z,54.50
2023-02-12T23:02:04.216Z,51.60
2023-02-12T23:05:09.634Z,55.40
2023-02-12T23:08:12.947Z,52.80
2023-02-12T23:11:16.602Z,52.25
2023-02-12T23:14:20.455Z,55.25
2023-02-12T23:17:23.898Z,56.00
2023-02-12T23:20:28.502Z,49.25
2023-02-12T23:23:34.996Z,54.00
2023-02-12T23:26:38.270Z,52.75
2023-02-12T23:29:41.920Z,52.50
2023-02-12T23:32:45.179Z,53.00
2023-02-12T23:35:50.756Z,55.60
2023-02-12T23:38:54.010Z,58.00
2023-02-12T23:41:57.297Z,52.20
2023-02-12T23:45:00.520Z,53.00
2023-02-12T23:48:04.051Z,53.00
2023-02-12T23:51:08.759Z,52.20
2023-02-12T23:54:12.003Z,57.75
2023-02-12T23:57:15.328Z,56.50
